Time;durP1;ratioP1;P1;durP2;ratioP2;P2;SDS_P1;SDS_P2;PMS_P1;PMS_P2;Temp;Humidity;BMP_temperature;BMP_pressure;BME280_temperature;BME280_humidity;BME280_pressure;Samples;Min_cycle;Max_cycle;Signal;HPM_P1;HPM_P2
2023/01/11 00:01:04;;;;;;;7.63;6.93;;;9.60;99.90;;;;;;4956572;28;20453;-79
2023/01/11 00:03:30;;;;;;;7.35;6.65;;;8.80;99.90;;;;;;4955104;28;20523;-78
2023/01/11 00:05:57;;;;;;;7.53;6.82;;;8.80;99.90;;;;;;4954847;28;20987;-80
2023/01/11 00:08:24;;;;;;;7.90;7.07;;;8.90;99.90;;;;;;4956185;28;20854;-78
2023/01/11 00:10:50;;;;;;;7.88;7.07;;;9.30;99.90;;;;;;4977712;28;20459;-80
2023/01/11 00:13:16;;;;;;;7.53;6.83;;;9.30;99.90;;;;;;4952938;28;20436;-76
2023/01/11 00:15:42;;;;;;;7.95;7.20;;;9.20;99.90;;;;;;4954295;28;20436;-78
2023/01/11 00:18:08;;;;;;;7.93;7.13;;;9.60;99.90;;;;;;4955008;28;20436;-77
2023/01/11 00:20:37;;;;;;;7.40;6.80;;;9.50;99.90;;;;;;4954324;28;20512;-79
2023/01/11 00:23:02;;;;;;;8.00;7.30;;;9.00;99.90;;;;;;4955046;28;20446;-76
2023/01/11 00:25:28;;;;;;;7.40;6.80;;;9.20;99.90;;;;;;4955809;28;20444;-79
2023/01/11 00:27:54;;;;;;;6.90;6.30;;;8.90;99.90;;;;;;4954471;28;20424;-78
2023/01/11 00:30:20;;;;;;;7.40;6.70;;;9.20;99.90;;;;;;4955525;28;20566;-80
2023/01/11 00:32:46;;;;;;;7.03;6.43;;;9.50;99.90;;;;;;4954336;28;20424;-79
2023/01/11 00:35:12;;;;;;;6.63;6.03;;;9.70;99.90;;;;;;4954180;28;20949;-79
2023/01/11 00:37:38;;;;;;;7.07;6.03;;;8.90;99.90;;;;;;4954915;28;20431;-79
2023/01/11 00:40:04;;;;;;;6.93;6.40;;;9.70;99.90;;;;;;4954809;28;20523;-76
2023/01/11 00:47:59;;;;;;;7.22;6.53;;;9.90;99.90;;;;;;4956068;28;20499;-78
2023/01/11 00:50:31;;;;;;;7.13;6.43;;;9.00;99.90;;;;;;4955191;28;20440;-79
2023/01/11 00:52:58;;;;;;;5.63;5.13;;;9.70;99.90;;;;;;4956937;28;20424;-78
2023/01/11 00:55:24;;;;;;;6.67;6.07;;;9.90;99.90;;;;;;4966712;28;20506;-78
2023/01/11 00:57:50;;;;;;;6.10;5.50;;;9.10;99.90;;;;;;4954075;28;20893;-78
2023/01/11 01:00:16;;;;;;;5.72;5.22;;;10.00;99.90;;;;;;4953778;28;20993;-77
2023/01/11 01:02:42;;;;;;;5.22;4.55;;;9.40;99.90;;;;;;4955010;28;20428;-77
2023/01/11 01:05:08;;;;;;;5.18;4.78;;;10.20;99.90;;;;;;4938364;28;21204;-78
2023/01/11 01:07:35;;;;;;;4.93;4.47;;;9.60;99.90;;;;;;4937287;28;20435;-78
2023/01/11 01:10:01;;;;;;;4.53;4.13;;;10.40;99.90;;;;;;4958123;28;20420;-78
2023/01/11 01:15:11;;;;;;;4.50;4.10;;;9.40;99.90;;;;;;4953872;28;20487;-77
2023/01/11 01:17:37;;;;;;;4.88;4.38;;;9.10;99.90;;;;;;4953846;28;20578;-77
2023/01/11 01:20:03;;;;;;;5.25;4.75;;;9.40;99.90;;;;;;4954097;28;20479;-78
2023/01/11 01:22:28;;;;;;;5.25;4.75;;;9.80;99.90;;;;;;4956326;28;20806;-76
2023/01/11 01:24:54;;;;;;;5.33;4.83;;;9.20;99.90;;;;;;4956559;28;20541;-79
2023/01/11 01:27:20;;;;;;;4.80;4.40;;;9.90;99.90;;;;;;4954247;28;20431;-79
2023/01/11 01:29:45;;;;;;;5.10;4.60;;;9.50;99.90;;;;;;4954102;28;20474;-78
2023/01/11 01:32:11;;;;;;;4.90;4.50;;;10.40;99.90;;;;;;4955176;28;20517;-78
2023/01/11 01:34:37;;;;;;;4.70;4.30;;;10.20;99.90;;;;;;4955412;28;20519;-77
2023/01/11 01:37:06;;;;;;;4.82;4.32;;;9.30;99.90;;;;;;4954605;28;20797;-79
2023/01/11 01:39:32;;;;;;;4.50;4.10;;;10.30;99.90;;;;;;4954883;28;20494;-79
2023/01/11 01:41:58;;;;;;;5.20;4.13;;;10.50;99.90;;;;;;4956006;28;20423;-76
2023/01/11 01:45:01;;;;;;;4.90;4.07;;;9.60;99.90;;;;;;4960262;28;20458;-78
2023/01/11 01:47:41;;;;;;;4.88;3.92;;;10.30;99.90;;;;;;4962788;28;20515;-77
2023/01/11 01:50:15;;;;;;;4.72;4.07;;;9.50;99.90;;;;;;4954728;28;20853;-79
2023/01/11 01:52:43;;;;;;;5.10;4.60;;;10.50;99.90;;;;;;4936357;29;20425;-78
2023/01/11 01:55:13;;;;;;;4.53;4.13;;;10.30;99.90;;;;;;4939106;28;20521;-78
2023/01/11 01:57:43;;;;;;;5.10;4.22;;;10.40;99.90;;;;;;4954075;28;20439;-78
2023/01/11 02:00:09;;;;;;;4.70;4.30;;;9.60;99.90;;;;;;4953806;28;20523;-78
2023/01/11 02:02:38;;;;;;;4.25;3.88;;;9.70;99.90;;;;;;4953668;28;20439;-78
2023/01/11 02:05:05;;;;;;;4.32;3.92;;;10.00;99.90;;;;;;4957106;28;20440;-78
2023/01/11 02:07:37;;;;;;;4.68;4.20;;;9.60;99.90;;;;;;4957282;28;20428;-78
2023/01/11 02:10:20;;;;;;;4.97;3.92;;;10.10;99.90;;;;;;4957326;28;20432;-76
2023/01/11 02:12:49;;;;;;;4.00;3.60;;;9.50;99.90;;;;;;4957044;28;20923;-79
2023/01/11 02:15:17;;;;;;;4.30;3.85;;;10.70;99.90;;;;;;4951082;28;20433;-79
2023/01/11 02:17:43;;;;;;;4.45;4.05;;;10.30;99.90;;;;;;4956763;28;20469;-78
2023/01/11 02:20:16;;;;;;;4.47;4.07;;;9.60;99.90;;;;;;4958907;28;20827;-78
2023/01/11 02:22:56;;;;;;;4.35;3.95;;;9.80;99.90;;;;;;4956664;28;20575;-78
2023/01/11 02:25:43;;;;;;;4.28;3.80;;;10.60;99.90;;;;;;4957069;28;20572;-77
2023/01/11 02:28:27;;;;;;;4.47;3.80;;;11.00;99.90;;;;;;4956985;28;20966;-78
2023/01/11 02:31:27;;;;;;;4.07;3.67;;;9.90;99.90;;;;;;4956927;28;20433;-78
2023/01/11 02:34:40;;;;;;;4.07;3.75;;;10.50;99.90;;;;;;4954553;28;20431;-77
2023/01/11 02:37:35;;;;;;;4.07;3.72;;;9.90;99.90;;;;;;4922937;29;20464;-79
2023/01/11 02:40:09;;;;;;;3.75;3.45;;;10.10;99.90;;;;;;4938415;29;20445;-77
2023/01/11 02:45:50;;;;;;;2.78;2.50;;;10.30;99.90;;;;;;4950488;28;20503;-77
2023/01/11 02:48:43;;;;;;;3.83;2.50;;;10.80;99.90;;;;;;4957824;28;20775;-80
2023/01/11 02:51:18;;;;;;;1.92;1.80;;;9.80;99.90;;;;;;4941905;28;21152;-78
2023/01/11 02:53:52;;;;;;;2.10;1.52;;;10.20;99.90;;;;;;4974199;28;20766;-78
2023/01/11 02:56:22;;;;;;;1.83;1.50;;;9.90;99.90;;;;;;4956705;28;20440;-79
2023/01/11 02:58:51;;;;;;;2.00;1.20;;;9.90;99.90;;;;;;4958117;28;20420;-77
2023/01/11 03:01:18;;;;;;;2.70;1.20;;;10.90;99.90;;;;;;4957244;28;20430;-78
2023/01/11 03:03:44;;;;;;;3.83;1.67;;;10.00;99.90;;;;;;4972859;28;20459;-78
2023/01/11 03:06:10;;;;;;;2.33;1.93;;;12.40;99.90;;;;;;4954740;28;20852;-78
2023/01/11 03:09:00;;;;;;;3.92;2.40;;;11.10;99.90;;;;;;4957219;28;20432;-76
2023/01/11 03:14:47;;;;;;;5.45;3.15;;;10.90;99.90;;;;;;4938350;28;20776;-77
2023/01/11 03:17:21;;;;;;;6.20;3.50;;;10.30;99.90;;;;;;4939147;28;20447;-77
2023/01/11 03:19:50;;;;;;;5.57;3.43;;;10.90;99.90;;;;;;4955950;28;20870;-77
2023/01/11 03:22:39;;;;;;;6.13;3.55;;;10.90;99.90;;;;;;4956478;28;20588;-77
2023/01/11 03:27:54;;;;;;;9.98;4.07;;;10.50;99.90;;;;;;4259901;23;20479;-78
2023/01/11 03:30:30;;;;;;;10.13;4.32;;;11.10;99.90;;;;;;4946287;28;20451;-77
2023/01/11 03:33:16;;;;;;;9.82;3.95;;;10.20;99.90;;;;;;4952745;28;20571;-78
2023/01/11 03:36:10;;;;;;;12.40;4.80;;;11.10;99.90;;;;;;4957896;28;20861;-78
2023/01/11 03:38:43;;;;;;;10.27;4.53;;;10.60;99.90;;;;;;4955457;28;20435;-78
2023/01/11 03:41:15;;;;;;;15.05;4.70;;;10.90;99.90;;;;;;4957297;28;20416;-77
2023/01/11 03:43:42;;;;;;;12.15;4.65;;;10.20;99.90;;;;;;4954948;28;20428;-77
2023/01/11 03:46:16;;;;;;;15.43;5.20;;;11.90;99.90;;;;;;4956238;28;20436;-76
2023/01/11 03:48:53;;;;;;;17.27;5.75;;;11.50;99.90;;;;;;4957135;28;20428;-77
2023/01/11 03:51:26;;;;;;;16.08;5.50;;;11.00;99.90;;;;;;4956607;28;20471;-77
2023/01/11 03:53:55;;;;;;;18.13;6.25;;;10.40;99.90;;;;;;4953685;28;20775;-76
2023/01/11 03:56:29;;;;;;;13.90;5.88;;;12.30;99.90;;;;;;4955538;28;21144;-78
2023/01/11 03:58:55;;;;;;;17.60;6.57;;;10.90;99.90;;;;;;4957292;28;20551;-77
2023/01/11 04:01:20;;;;;;;23.90;5.47;;;11.10;99.90;;;;;;4956840;28;20515;-79
2023/01/11 04:03:46;;;;;;;20.33;5.70;;;10.60;99.90;;;;;;4956508;28;20428;-78
2023/01/11 04:06:12;;;;;;;20.63;5.80;;;11.00;99.90;;;;;;4956627;28;20431;-76
2023/01/11 04:08:38;;;;;;;21.87;5.70;;;10.20;99.90;;;;;;4954916;28;20546;-77
2023/01/11 04:11:04;;;;;;;19.13;5.00;;;10.70;99.90;;;;;;4954727;28;20443;-78
2023/01/11 04:13:30;;;;;;;18.45;4.80;;;10.90;99.90;;;;;;4934794;28;20432;-77
2023/01/11 04:15:55;;;;;;;21.10;6.70;;;10.20;99.90;;;;;;4956950;28;20415;-78
2023/01/11 04:18:21;;;;;;;24.25;6.40;;;11.00;99.90;;;;;;4955598;28;20527;-77
2023/01/11 04:20:46;;;;;;;23.27;6.35;;;10.40;99.90;;;;;;4938027;28;20469;-76
2023/01/11 04:23:13;;;;;;;21.40;5.40;;;10.70;99.90;;;;;;4953092;28;20530;-77
2023/01/11 04:25:39;;;;;;;27.98;6.95;;;11.10;99.90;;;;;;4954355;28;20451;-78
2023/01/11 04:28:05;;;;;;;27.83;6.40;;;10.30;99.90;;;;;;4954018;28;20432;-78
2023/01/11 04:30:30;;;;;;;24.13;4.83;;;10.40;99.90;;;;;;4956307;28;20519;-79
2023/01/11 04:32:58;;;;;;;25.63;4.93;;;10.40;99.90;;;;;;4955253;28;20950;-78
2023/01/11 04:35:23;;;;;;;24.33;7.15;;;10.80;99.90;;;;;;4955672;28;20443;-78
2023/01/11 04:37:53;;;;;;;30.77;6.13;;;10.70;99.90;;;;;;4956005;28;20412;-77
2023/01/11 04:40:19;;;;;;;18.65;4.60;;;10.90;99.90;;;;;;4954704;28;20427;-77
2023/01/11 04:42:45;;;;;;;20.70;4.53;;;10.70;99.90;;;;;;4955076;28;20424;-78
2023/01/11 04:45:11;;;;;;;18.53;3.87;;;10.30;99.90;;;;;;4954598;28;20511;-78
2023/01/11 04:47:36;;;;;;;21.33;4.30;;;11.00;99.90;;;;;;4954142;28;20427;-76
2023/01/11 04:50:03;;;;;;;21.67;5.17;;;10.30;99.90;;;;;;4955958;28;21065;-77
2023/01/11 04:52:28;;;;;;;26.30;4.80;;;10.30;99.90;;;;;;4938809;28;20415;-78
2023/01/11 04:54:54;;;;;;;27.77;7.03;;;10.60;99.90;;;;;;4956177;28;20668;-78
2023/01/11 04:57:20;;;;;;;29.77;5.90;;;10.40;99.90;;;;;;4952797;28;20939;-78
2023/01/11 04:59:45;;;;;;;28.93;5.37;;;10.40;99.90;;;;;;4955644;28;20826;-77
2023/01/11 05:02:12;;;;;;;29.60;7.00;;;10.60;99.90;;;;;;4956008;28;20416;-78
2023/01/11 05:04:37;;;;;;;27.80;5.00;;;10.50;99.90;;;;;;4954844;28;20440;-78
2023/01/11 05:07:03;;;;;;;25.50;6.43;;;10.20;99.90;;;;;;4956503;28;20768;-77
2023/01/11 05:09:28;;;;;;;32.40;6.13;;;10.60;99.90;;;;;;4954801;28;20439;-77
2023/01/11 05:11:54;;;;;;;27.67;6.30;;;10.50;99.90;;;;;;4955217;28;20607;-78
2023/01/11 05:14:20;;;;;;;28.30;5.50;;;10.10;99.90;;;;;;4952054;28;20424;-78
2023/01/11 05:16:47;;;;;;;27.88;5.70;;;10.60;99.90;;;;;;4951450;28;20479;-77
2023/01/11 05:19:13;;;;;;;24.73;5.72;;;10.10;99.90;;;;;;4953788;28;20515;-77
2023/01/11 05:21:40;;;;;;;22.47;5.37;;;10.90;99.90;;;;;;4950550;28;20879;-77
2023/01/11 05:24:09;;;;;;;31.05;5.10;;;10.40;99.90;;;;;;4954259;28;20432;-78
2023/01/11 05:26:37;;;;;;;24.48;4.45;;;10.30;99.90;;;;;;4953093;28;20448;-77
2023/01/11 05:29:09;;;;;;;25.45;5.22;;;10.00;99.90;;;;;;4953724;28;20435;-77
2023/01/11 05:31:37;;;;;;;23.55;5.07;;;10.20;99.90;;;;;;4938966;28;20779;-75
2023/01/11 05:34:02;;;;;;;22.30;4.43;;;8.70;99.90;;;;;;4956038;28;20998;-77
2023/01/11 05:36:28;;;;;;;17.60;4.00;;;10.00;99.90;;;;;;4952010;28;21003;-77
2023/01/11 05:38:55;;;;;;;24.10;6.32;;;10.20;99.90;;;;;;4958483;28;20432;-77
2023/01/11 05:41:23;;;;;;;29.33;6.32;;;9.90;99.90;;;;;;4958071;28;20988;-78
2023/01/11 05:46:36;;;;;;;26.45;5.18;;;9.90;99.90;;;;;;4959296;28;20432;-78
2023/01/11 05:49:02;;;;;;;26.95;4.50;;;10.00;99.90;;;;;;4957721;28;20440;-77
2023/01/11 05:51:29;;;;;;;27.52;5.55;;;10.10;99.90;;;;;;4957718;28;20435;-76
2023/01/11 05:53:59;;;;;;;27.98;5.15;;;10.50;99.90;;;;;;4957800;28;20473;-76
2023/01/11 05:56:25;;;;;;;24.77;4.47;;;9.90;99.90;;;;;;4957580;28;20902;-76
2023/01/11 05:58:51;;;;;;;24.75;5.55;;;9.60;99.90;;;;;;4959309;28;20511;-77
2023/01/11 06:01:19;;;;;;;34.25;6.40;;;9.90;99.90;;;;;;4957742;28;20511;-77
2023/01/11 06:03:46;;;;;;;34.30;5.90;;;9.70;99.90;;;;;;4959748;28;20845;-78
2023/01/11 06:06:12;;;;;;;33.20;5.68;;;9.40;99.90;;;;;;4958815;28;20432;-77
2023/01/11 06:08:38;;;;;;;22.05;5.05;;;9.50;99.90;;;;;;4940447;28;20961;-77
2023/01/11 06:11:03;;;;;;;25.00;5.13;;;9.60;99.90;;;;;;4958028;28;20879;-77
2023/01/11 06:13:29;;;;;;;29.10;5.40;;;9.70;99.90;;;;;;4956253;28;20443;-77
2023/01/11 06:15:59;;;;;;;25.57;4.30;;;9.40;99.90;;;;;;4959691;28;20499;-77
2023/01/11 06:18:25;;;;;;;29.20;4.93;;;9.70;99.90;;;;;;4955690;28;20436;-77
2023/01/11 06:20:53;;;;;;;30.00;5.47;;;10.50;99.90;;;;;;4958461;28;20498;-77
2023/01/11 06:23:18;;;;;;;26.60;5.20;;;9.40;99.90;;;;;;4956104;28;20897;-79
2023/01/11 06:25:44;;;;;;;21.90;4.70;;;9.70;99.90;;;;;;4957116;28;20764;-78
2023/01/11 06:28:10;;;;;;;23.48;5.22;;;9.70;99.90;;;;;;4955406;28;20429;-77
2023/01/11 06:30:36;;;;;;;27.92;4.85;;;9.80;99.90;;;;;;4958436;28;20414;-77
2023/01/11 06:33:05;;;;;;;23.23;5.53;;;9.50;99.90;;;;;;4957387;28;20420;-77
2023/01/11 06:35:39;;;;;;;21.57;4.93;;;9.40;99.90;;;;;;4957607;28;20412;-77
2023/01/11 06:38:06;;;;;;;23.95;4.15;;;9.50;99.90;;;;;;4957880;28;20431;-77
2023/01/11 06:40:32;;;;;;;25.42;4.80;;;10.30;99.90;;;;;;4957743;28;20772;-77
2023/01/11 06:42:57;;;;;;;26.13;5.25;;;10.00;99.90;;;;;;4942016;28;20780;-77
2023/01/11 06:45:23;;;;;;;20.17;4.28;;;9.40;99.90;;;;;;4952219;28;20865;-77
2023/01/11 06:47:48;;;;;;;23.37;3.33;;;9.90;99.90;;;;;;4954923;28;20934;-77
2023/01/11 06:50:15;;;;;;;17.63;3.40;;;10.00;99.90;;;;;;4954746;28;20444;-77
2023/01/11 06:52:40;;;;;;;19.85;3.50;;;9.60;99.90;;;;;;4958754;28;21242;-80
2023/01/11 06:55:06;;;;;;;25.83;5.10;;;9.90;99.90;;;;;;4955534;28;20444;-78
2023/01/11 06:57:32;;;;;;;18.25;3.72;;;9.40;99.90;;;;;;4956165;28;20914;-78
2023/01/11 06:59:58;;;;;;;20.63;4.50;;;9.60;99.90;;;;;;4958035;28;20491;-77
2023/01/11 07:02:24;;;;;;;19.20;3.13;;;9.70;99.90;;;;;;4957806;28;20946;-77
2023/01/11 07:04:50;;;;;;;18.07;3.67;;;9.30;99.90;;;;;;4958796;28;20523;-77
2023/01/11 07:07:15;;;;;;;21.10;4.50;;;9.40;99.90;;;;;;4957218;28;20846;-77
2023/01/11 07:09:41;;;;;;;18.13;3.63;;;9.70;99.90;;;;;;4956782;28;20806;-77
2023/01/11 07:12:07;;;;;;;18.13;2.83;;;9.60;99.90;;;;;;4956689;28;20432;-78
2023/01/11 07:14:33;;;;;;;18.45;3.25;;;9.90;99.90;;;;;;4958581;28;20460;-77
2023/01/11 07:16:59;;;;;;;19.47;3.93;;;9.60;99.90;;;;;;4956298;28;20428;-77
2023/01/11 07:19:24;;;;;;;18.20;3.10;;;9.40;99.90;;;;;;4956298;28;20530;-77
2023/01/11 07:21:50;;;;;;;17.47;3.10;;;9.60;99.90;;;;;;4956344;28;20447;-76
2023/01/11 07:24:16;;;;;;;14.27;3.27;;;10.20;99.90;;;;;;4955293;28;20438;-76
2023/01/11 07:26:42;;;;;;;14.80;2.93;;;9.30;99.90;;;;;;4956609;28;20637;-77
2023/01/11 07:29:08;;;;;;;16.65;4.13;;;9.50;99.90;;;;;;4955872;28;20431;-77
2023/01/11 07:31:33;;;;;;;22.13;3.83;;;9.30;99.90;;;;;;4957163;28;20427;-76
2023/01/11 07:33:59;;;;;;;16.50;2.67;;;9.80;99.90;;;;;;4955863;28;20436;-77
2023/01/11 07:36:25;;;;;;;15.20;3.80;;;10.10;99.90;;;;;;4954799;28;20806;-76
2023/01/11 07:38:50;;;;;;;15.00;2.70;;;9.30;99.90;;;;;;4957726;28;20512;-76
2023/01/11 07:44:00;;;;;;;14.25;2.53;;;9.10;99.90;;;;;;4955485;28;20794;-77
2023/01/11 07:46:26;;;;;;;20.43;4.07;;;9.20;99.90;;;;;;4954091;28;20494;-76
2023/01/11 07:48:52;;;;;;;15.77;2.58;;;9.80;99.90;;;;;;4953912;28;20458;-75
2023/01/11 07:51:19;;;;;;;13.50;2.40;;;9.10;99.90;;;;;;4945723;28;20431;-77
2023/01/11 07:53:45;;;;;;;13.30;2.70;;;9.10;99.90;;;;;;4955682;28;20439;-77
2023/01/11 07:56:12;;;;;;;20.35;4.13;;;9.20;99.90;;;;;;4953536;28;20442;-77
2023/01/11 07:58:38;;;;;;;17.67;2.83;;;9.10;99.90;;;;;;4937502;28;20435;-76
2023/01/11 08:01:04;;;;;;;16.02;3.42;;;9.40;99.90;;;;;;4952028;28;20432;-76
2023/01/11 08:03:30;;;;;;;13.10;2.88;;;9.20;99.90;;;;;;4956875;28;20434;-76
2023/01/11 08:05:56;;;;;;;12.50;2.75;;;9.10;99.90;;;;;;4957603;28;20436;-75
2023/01/11 08:08:21;;;;;;;18.33;2.83;;;9.20;99.90;;;;;;4954391;28;21364;-77
2023/01/11 08:14:37;;;;;;;14.93;3.22;;;9.20;99.90;;;;;;4955026;28;20850;-76
2023/01/11 08:16:17;;;;;;;14.05;2.50;;;9.10;99.90;;;;;;4950160;28;20503;-77
2023/01/11 08:18:42;;;;;;;11.93;2.28;;;9.10;99.90;;;;;;4956220;28;20432;-76
2023/01/11 08:21:08;;;;;;;15.85;2.60;;;9.10;99.90;;;;;;4955849;28;20423;-76
2023/01/11 08:23:34;;;;;;;10.63;2.65;;;9.10;99.90;;;;;;4955612;28;20780;-75
2023/01/11 08:26:00;;;;;;;10.98;2.60;;;9.10;99.90;;;;;;4955012;28;20878;-75
2023/01/11 08:28:26;;;;;;;10.23;2.00;;;9.10;99.90;;;;;;4954376;28;20769;-75
2023/01/11 08:30:51;;;;;;;13.30;3.47;;;9.00;99.90;;;;;;4957053;28;20424;-77
2023/01/11 08:33:17;;;;;;;18.15;4.22;;;9.00;99.90;;;;;;4955325;28;20530;-77
2023/01/11 08:35:43;;;;;;;16.70;3.70;;;9.00;99.90;;;;;;4950278;28;20494;-75
2023/01/11 08:38:08;;;;;;;12.25;2.50;;;8.80;99.90;;;;;;4938238;28;20446;-75
2023/01/11 08:40:35;;;;;;;16.88;3.65;;;8.90;99.90;;;;;;4955851;28;20455;-76
2023/01/11 08:43:00;;;;;;;13.38;3.03;;;8.90;99.90;;;;;;4956093;28;20424;-78
2023/01/11 08:45:26;;;;;;;12.37;3.57;;;8.80;99.90;;;;;;4956056;28;21036;-75
2023/01/11 08:47:53;;;;;;;10.80;2.70;;;8.80;99.90;;;;;;4954440;28;20435;-76
2023/01/11 08:50:19;;;;;;;12.70;2.97;;;8.80;99.90;;;;;;4954861;28;20993;-76
2023/01/11 08:52:45;;;;;;;15.32;2.30;;;8.90;99.90;;;;;;4947988;28;20928;-78
2023/01/11 08:55:11;;;;;;;11.43;2.40;;;9.50;99.90;;;;;;4951919;28;20431;-75
2023/01/11 08:57:36;;;;;;;13.73;3.13;;;8.80;99.90;;;;;;4954283;28;20436;-75
2023/01/11 09:00:06;;;;;;;14.32;2.92;;;8.70;99.90;;;;;;4955775;28;20440;-78
2023/01/11 09:02:32;;;;;;;11.68;2.45;;;9.00;99.90;;;;;;4947447;28;20433;-79
2023/01/11 09:04:58;;;;;;;9.80;2.13;;;9.50;99.90;;;;;;4936806;29;20451;-77
2023/01/11 09:07:24;;;;;;;16.05;4.20;;;8.70;99.90;;;;;;4949393;28;20551;-76
2023/01/11 09:09:50;;;;;;;12.25;2.75;;;8.60;99.90;;;;;;4956103;28;20502;-77
2023/01/11 09:12:17;;;;;;;10.90;2.10;;;8.70;99.90;;;;;;4957170;28;20408;-77
2023/01/11 09:14:43;;;;;;;10.82;2.30;;;8.60;99.90;;;;;;4961779;28;20428;-76
2023/01/11 09:17:09;;;;;;;15.88;3.05;;;8.60;99.90;;;;;;4959969;28;20427;-76
2023/01/11 09:19:34;;;;;;;13.73;3.50;;;8.60;99.90;;;;;;4962876;28;20591;-75
2023/01/11 09:22:03;;;;;;;15.73;2.97;;;8.80;99.90;;;;;;4960366;28;21008;-75
2023/01/11 09:24:29;;;;;;;20.40;3.78;;;8.70;99.90;;;;;;4958995;28;20451;-75
2023/01/11 09:26:59;;;;;;;10.55;2.10;;;8.60;99.90;;;;;;4960056;28;20454;-75
2023/01/11 09:29:25;;;;;;;17.17;3.25;;;8.70;99.90;;;;;;4960972;28;20449;-76
2023/01/11 09:31:51;;;;;;;14.48;3.20;;;8.70;99.90;;;;;;4962519;28;20430;-76
2023/01/11 09:34:18;;;;;;;11.98;2.45;;;8.70;99.90;;;;;;4958142;28;20421;-75
2023/01/11 09:36:46;;;;;;;8.63;2.22;;;8.70;99.90;;;;;;4960453;28;20491;-75
2023/01/11 09:39:14;;;;;;;10.77;1.90;;;8.70;99.90;;;;;;4944566;28;20863;-75
2023/01/11 09:41:59;;;;;;;13.50;2.00;;;8.80;99.90;;;;;;4959703;28;20442;-75
2023/01/11 09:44:26;;;;;;;14.15;2.65;;;8.90;99.90;;;;;;4958546;28;20440;-75
2023/01/11 09:47:02;;;;;;;12.43;2.67;;;8.80;99.90;;;;;;4962476;28;20451;-75
2023/01/11 09:49:33;;;;;;;13.88;2.78;;;8.90;99.90;;;;;;4957997;28;20428;-75
2023/01/11 09:52:31;;;;;;;13.80;1.95;;;8.90;99.90;;;;;;4937685;28;21003;-75
2023/01/11 09:54:58;;;;;;;10.23;2.13;;;9.00;99.90;;;;;;4942052;29;20994;-75
2023/01/11 09:57:40;;;;;;;15.05;2.40;;;9.10;99.90;;;;;;4948174;28;20606;-75
2023/01/11 10:00:49;;;;;;;12.55;3.28;;;9.10;99.90;;;;;;4962061;28;20435;-76
2023/01/11 10:03:53;;;;;;;11.38;1.92;;;9.10;99.90;;;;;;4960358;28;20422;-75
2023/01/11 10:06:27;;;;;;;10.43;2.20;;;9.10;99.90;;;;;;4959198;28;20620;-75
2023/01/11 10:09:03;;;;;;;12.18;2.42;;;9.20;99.90;;;;;;4959777;28;20432;-75
2023/01/11 10:11:40;;;;;;;16.05;3.42;;;9.10;99.90;;;;;;4961497;28;20455;-75
2023/01/11 10:14:25;;;;;;;12.40;2.70;;;9.20;99.90;;;;;;4958759;28;20503;-75
2023/01/11 10:17:29;;;;;;;13.07;3.58;;;9.10;99.90;;;;;;4952672;28;20484;-75
2023/01/11 10:20:04;;;;;;;11.30;2.35;;;9.30;99.90;;;;;;4971879;28;20454;-75
2023/01/11 10:22:38;;;;;;;16.58;3.50;;;9.30;99.90;;;;;;4960573;28;20790;-75
2023/01/11 10:25:22;;;;;;;18.35;3.50;;;9.30;99.90;;;;;;4942348;28;20439;-76
2023/01/11 10:27:59;;;;;;;15.48;4.15;;;9.30;99.90;;;;;;4957341;28;20439;-76
2023/01/11 10:34:09;;;;;;;12.57;3.08;;;9.40;99.90;;;;;;4934955;29;20797;-74
2023/01/11 10:42:46;;;;;;;14.70;3.03;;;9.40;99.90;;;;;;4956422;28;20428;-77
2023/01/11 10:45:28;;;;;;;20.40;5.00;;;10.00;99.90;;;;;;4953834;28;20440;-76
2023/01/11 10:48:14;;;;;;;16.87;5.10;;;9.40;99.90;;;;;;4955435;28;20432;-76
2023/01/11 10:50:59;;;;;;;14.23;3.90;;;9.50;99.90;;;;;;4955206;28;20424;-76
2023/01/11 10:53:38;;;;;;;19.25;3.83;;;9.50;99.90;;;;;;4956883;28;20999;-76
2023/01/11 10:56:21;;;;;;;16.55;3.88;;;9.40;99.90;;;;;;4956014;28;20420;-76
2023/01/11 10:59:06;;;;;;;16.15;3.08;;;9.50;99.90;;;;;;4968244;28;20443;-75
2023/01/11 11:01:49;;;;;;;13.60;3.50;;;9.80;99.90;;;;;;4955351;28;20443;-77
2023/01/11 11:04:43;;;;;;;17.45;3.67;;;9.40;99.90;;;;;;4956873;28;20443;-76
2023/01/11 11:07:20;;;;;;;18.05;3.13;;;9.40;99.90;;;;;;4955844;28;20458;-77
2023/01/11 11:09:59;;;;;;;19.35;4.20;;;9.30;99.90;;;;;;4954874;28;20946;-76
2023/01/11 11:12:32;;;;;;;16.02;3.72;;;9.30;99.90;;;;;;4955126;28;20436;-75
2023/01/11 11:15:19;;;;;;;16.85;3.60;;;9.30;99.90;;;;;;4947849;28;20850;-75
2023/01/11 11:17:49;;;;;;;18.25;4.18;;;9.40;99.90;;;;;;4953845;28;20424;-74
2023/01/11 11:20:18;;;;;;;21.40;4.35;;;9.40;99.90;;;;;;4950834;28;20432;-74
2023/01/11 11:22:44;;;;;;;18.17;3.83;;;9.50;99.90;;;;;;4950486;28;20632;-74
2023/01/11 11:25:21;;;;;;;17.95;4.07;;;9.50;99.90;;;;;;4949908;28;20439;-74
2023/01/11 11:28:15;;;;;;;17.33;3.85;;;9.50;99.90;;;;;;4956096;28;20432;-75
2023/01/11 11:30:45;;;;;;;16.45;4.30;;;9.60;99.90;;;;;;4936334;28;20440;-76
2023/01/11 11:33:42;;;;;;;21.25;3.60;;;10.00;99.90;;;;;;4946578;28;20501;-74
2023/01/11 11:36:11;;;;;;;22.23;4.80;;;9.70;99.90;;;;;;4952505;28;20440;-74
2023/01/11 11:38:39;;;;;;;21.13;4.13;;;9.60;99.90;;;;;;4946220;28;20439;-73
2023/01/11 11:41:11;;;;;;;20.60;4.50;;;9.70;99.90;;;;;;4949259;28;21060;-76
2023/01/11 11:43:45;;;;;;;23.50;5.20;;;10.60;99.90;;;;;;4949250;28;20439;-75
2023/01/11 11:46:13;;;;;;;22.73;5.55;;;9.70;99.90;;;;;;4954146;28;20665;-75
2023/01/11 11:48:41;;;;;;;16.80;4.03;;;10.70;99.90;;;;;;4954322;28;20439;-74
2023/01/11 11:51:20;;;;;;;20.93;4.10;;;9.70;99.90;;;;;;4946459;28;20526;-76
2023/01/11 11:53:55;;;;;;;25.25;5.43;;;10.30;99.90;;;;;;4946728;28;20808;-76
2023/01/11 11:56:32;;;;;;;21.65;4.85;;;9.50;99.90;;;;;;4951400;28;20460;-75
2023/01/11 11:59:04;;;;;;;16.25;4.00;;;10.30;99.90;;;;;;4953693;28;20531;-75
2023/01/11 12:01:35;;;;;;;19.23;4.55;;;9.60;99.90;;;;;;4945985;28;20997;-75
2023/01/11 12:04:10;;;;;;;18.90;4.32;;;9.60;99.90;;;;;;4935718;28;20773;-75
2023/01/11 12:06:36;;;;;;;16.00;3.67;;;9.70;99.90;;;;;;4948471;28;20810;-75
2023/01/11 12:09:09;;;;;;;23.58;4.70;;;9.80;99.90;;;;;;4947565;28;20435;-75
2023/01/11 12:11:39;;;;;;;22.13;4.82;;;10.20;99.90;;;;;;4955891;28;20451;-74
2023/01/11 12:14:11;;;;;;;19.23;5.20;;;10.00;99.90;;;;;;4953188;28;20420;-74
2023/01/11 12:16:42;;;;;;;20.65;4.10;;;9.70;99.90;;;;;;4966473;28;20553;-76
2023/01/11 12:19:25;;;;;;;21.35;4.72;;;9.90;99.90;;;;;;4955171;28;20478;-76
2023/01/11 12:21:52;;;;;;;21.40;4.78;;;10.10;99.90;;;;;;4947715;28;20552;-74
2023/01/11 12:24:18;;;;;;;17.10;4.65;;;9.80;99.90;;;;;;4948202;28;20523;-75
2023/01/11 12:27:05;;;;;;;23.23;5.20;;;9.90;99.90;;;;;;4944982;28;20565;-75
2023/01/11 12:29:34;;;;;;;19.10;4.72;;;9.70;99.90;;;;;;4952580;28;20463;-75
2023/01/11 12:32:08;;;;;;;19.80;4.25;;;9.90;99.90;;;;;;4951525;28;20444;-75
2023/01/11 12:34:46;;;;;;;23.20;4.57;;;10.20;99.90;;;;;;4949955;28;20409;-75
2023/01/11 12:37:19;;;;;;;26.13;6.50;;;10.30;99.90;;;;;;4955966;28;20424;-74
2023/01/11 12:39:53;;;;;;;26.07;4.23;;;10.40;99.90;;;;;;4956619;28;20987;-76
2023/01/11 12:42:56;;;;;;;20.70;4.40;;;9.90;99.90;;;;;;4526071;23;20882;-75
2023/01/11 12:45:42;;;;;;;18.05;3.83;;;9.80;99.90;;;;;;4954403;28;20536;-74
2023/01/11 12:48:39;;;;;;;16.85;4.25;;;9.70;99.90;;;;;;4955939;28;20445;-75
2023/01/11 12:51:13;;;;;;;23.25;5.30;;;9.70;99.90;;;;;;4966584;28;20440;-75
2023/01/11 12:53:44;;;;;;;23.25;5.55;;;9.70;99.90;;;;;;4959593;28;20432;-75
2023/01/11 12:56:41;;;;;;;16.02;4.80;;;9.80;99.90;;;;;;4952931;28;20786;-76
2023/01/11 12:59:32;;;;;;;19.85;4.72;;;9.80;99.90;;;;;;4957811;28;20432;-76
2023/01/11 13:02:24;;;;;;;22.90;5.15;;;9.60;99.90;;;;;;4956378;28;20494;-74
2023/01/11 13:05:08;;;;;;;23.40;5.25;;;9.60;99.90;;;;;;4964585;28;20435;-75
2023/01/11 13:07:40;;;;;;;27.73;5.05;;;9.70;99.90;;;;;;4948295;28;20443;-75
2023/01/11 13:10:22;;;;;;;18.83;4.07;;;9.80;99.90;;;;;;4952730;28;20440;-75
2023/01/11 13:12:57;;;;;;;16.97;3.87;;;9.80;99.90;;;;;;4942348;28;20439;-74
2023/01/11 13:15:30;;;;;;;24.52;5.10;;;9.80;99.90;;;;;;4953740;28;20443;-75
2023/01/11 13:18:17;;;;;;;26.35;5.38;;;9.80;99.90;;;;;;4955408;28;20927;-74
2023/01/11 13:21:06;;;;;;;28.95;6.72;;;9.90;99.90;;;;;;4957153;28;20507;-74
2023/01/11 13:23:49;;;;;;;26.27;4.87;;;9.90;99.90;;;;;;4951350;28;20482;-75
2023/01/11 13:26:27;;;;;;;22.10;4.95;;;9.80;99.90;;;;;;4964065;28;20434;-74
2023/01/11 13:29:01;;;;;;;24.73;5.32;;;9.70;99.90;;;;;;4965210;28;20571;-75
2023/01/11 13:31:28;;;;;;;27.60;4.82;;;9.70;99.90;;;;;;4957683;28;20430;-75
2023/01/11 13:34:24;;;;;;;22.80;5.18;;;9.70;99.90;;;;;;4969671;28;21193;-75
2023/01/11 13:36:59;;;;;;;33.13;7.57;;;9.60;99.90;;;;;;4955647;28;20443;-75
2023/01/11 13:39:52;;;;;;;30.00;5.85;;;9.60;99.90;;;;;;4950145;28;21047;-74
2023/01/11 13:42:32;;;;;;;23.15;6.07;;;9.60;99.90;;;;;;4960416;28;20497;-74